createdAt,value
2022-08-07T00:02:40.665Z,78.56
2022-08-07T00:05:34.171Z,78.01
2022-08-07T00:08:31.236Z,80.31
2022-08-07T00:11:13.437Z,80.27
2022-08-07T00:14:09.222Z,80.35
2022-08-07T00:16:53.078Z,81.01
2022-08-07T00:20:01.391Z,81.28
2022-08-07T00:22:51.564Z,80.87
2022-08-07T00:25:41.697Z,81.00
2022-08-07T00:28:33.711Z,80.97
2022-08-07T00:31:18.186Z,80.33
2022-08-07T00:34:00.155Z,79.90
2022-08-07T00:36:49.206Z,80.36
2022-08-07T00:39:31.155Z,80.80
2022-08-07T00:42:19.979Z,80.81
2022-08-07T00:45:19.574Z,80.63
2022-08-07T00:48:09.304Z,81.14
2022-08-07T00:51:00.333Z,80.85
2022-08-07T00:53:55.074Z,80.63
2022-08-07T00:56:44.174Z,80.24
2022-08-07T00:59:35.533Z,80.36
2022-08-07T01:02:28.854Z,80.37
2022-08-07T01:05:19.410Z,80.61
2022-08-07T01:08:09.024Z,80.40
2022-08-07T01:10:56.331Z,80.35
2022-08-07T01:13:46.788Z,80.68
2022-08-07T01:16:47.354Z,80.58
2022-08-07T01:19:32.819Z,80.31
2022-08-07T01:22:29.392Z,80.02
2022-08-07T01:25:54.468Z,80.19
2022-08-07T01:28:22.496Z,80.41
2022-08-07T01:31:15.493Z,79.59
2022-08-07T01:34:02.486Z,79.75
2022-08-07T01:36:58.258Z,79.47
2022-08-07T01:39:46.265Z,79.03
2022-08-07T01:42:58.773Z,78.87
2022-08-07T01:45:42.208Z,79.26
2022-08-07T01:48:36.184Z,78.93
2022-08-07T01:52:01.088Z,79.06
2022-08-07T01:54:45.968Z,79.61
2022-08-07T01:58:06.317Z,79.00
2022-08-07T02:01:10.385Z,78.44
2022-08-07T02:04:39.965Z,77.67
2022-08-07T02:08:04.037Z,77.59
2022-08-07T02:10:55.089Z,77.15
2022-08-07T02:14:00.847Z,76.23
2022-08-07T02:16:45.950Z,76.27
2022-08-07T02:20:04.739Z,76.03
2022-08-07T02:22:43.824Z,75.16
2022-08-07T02:26:30.759Z,73.92
2022-08-07T02:28:39.223Z,73.78
2022-08-07T02:31:30.943Z,72.53
2022-08-07T02:34:18.006Z,73.11
2022-08-07T02:37:13.178Z,72.93
2022-08-07T02:40:29.958Z,73.56
2022-08-07T02:43:08.248Z,73.09
2022-08-07T02:46:02.375Z,72.43
2022-08-07T02:48:55.159Z,72.08
2022-08-07T02:51:52.093Z,72.68
2022-08-07T02:54:38.927Z,73.08
2022-08-07T02:57:31.096Z,72.38
2022-08-07T03:00:18.493Z,71.86
2022-08-07T03:03:07.943Z,71.68
2022-08-07T03:06:05.472Z,71.88
2022-08-07T03:09:11.811Z,72.47
2022-08-07T03:12:02.867Z,72.90
2022-08-07T03:14:53.936Z,73.14
2022-08-07T03:17:54.013Z,72.37
2022-08-07T03:20:44.175Z,73.25
2022-08-07T03:24:18.102Z,72.79
2022-08-07T03:26:57.756Z,71.57
2022-08-07T03:30:00.189Z,70.66
2022-08-07T03:32:58.263Z,70.96
2022-08-07T03:35:50.374Z,69.59
2022-08-07T03:38:38.939Z,69.64
2022-08-07T03:41:42.616Z,69.55
2022-08-07T03:44:35.967Z,70.72
2022-08-07T03:47:20.547Z,68.15
2022-08-07T03:50:14.949Z,69.44
2022-08-07T03:53:03.972Z,70.31
2022-08-07T03:56:04.435Z,71.50
2022-08-07T03:59:08.102Z,69.58
2022-08-07T04:01:57.328Z,67.75
2022-08-07T04:04:50.223Z,68.11
2022-08-07T04:07:42.562Z,68.05
2022-08-07T04:10:29.945Z,67.37
2022-08-07T04:13:16.927Z,68.38
2022-08-07T04:16:10.898Z,67.39
2022-08-07T04:18:59.754Z,67.02
2022-08-07T04:21:59.482Z,65.77
2022-08-07T04:24:51.609Z,66.75
2022-08-07T04:27:44.189Z,66.92
2022-08-07T04:30:35.858Z,67.36
2022-08-07T04:33:36.485Z,67.02
2022-08-07T04:36:22.739Z,65.21
2022-08-07T04:39:15.957Z,66.35
2022-08-07T04:42:00.257Z,65.48
2022-08-07T04:44:54.745Z,65.47
2022-08-07T04:48:06.141Z,67.10
2022-08-07T04:51:03.653Z,67.48
2022-08-07T04:54:07.815Z,64.60
2022-08-07T04:58:14.585Z,61.05
2022-08-07T05:00:31.583Z,63.53
2022-08-07T05:04:07.325Z,61.62
2022-08-07T05:07:23.308Z,63.07
2022-08-07T05:10:29.997Z,62.72
2022-08-07T05:14:51.991Z,63.30
2022-08-07T05:16:52.871Z,64.88
2022-08-07T05:19:50.212Z,66.53
2022-08-07T05:22:39.566Z,64.56
2022-08-07T05:25:25.602Z,64.20
2022-08-07T05:28:27.630Z,63.68
2022-08-07T05:31:12.957Z,60.25
2022-08-07T05:34:04.859Z,62.65
2022-08-07T05:37:05.694Z,63.06
2022-08-07T05:40:06.597Z,61.88
2022-08-07T05:43:10.516Z,60.99
2022-08-07T05:46:00.202Z,60.30
2022-08-07T05:48:58.106Z,62.71
2022-08-07T05:51:52.252Z,62.77
2022-08-07T05:54:53.586Z,62.96
2022-08-07T05:57:48.914Z,66.17
2022-08-07T06:00:33.536Z,59.61
2022-08-07T06:03:27.185Z,63.05
2022-08-07T06:06:32.574Z,63.01
2022-08-07T06:09:56.595Z,66.81
2022-08-07T06:12:35.658Z,67.71
2022-08-07T06:15:39.496Z,66.92
2022-08-07T06:18:36.264Z,67.11
2022-08-07T06:22:16.875Z,67.97
2022-08-07T06:24:53.004Z,68.54
2022-08-07T06:27:59.852Z,70.82
2022-08-07T06:30:53.027Z,69.02
2022-08-07T06:33:37.523Z,68.54
2022-08-07T06:36:35.003Z,66.88
2022-08-07T06:40:15.907Z,67.23
2022-08-07T06:42:32.989Z,68.10
2022-08-07T06:45:28.937Z,67.28
2022-08-07T06:48:25.111Z,68.69
2022-08-07T06:51:10.502Z,68.93
2022-08-07T06:55:27.987Z,70.23
2022-08-07T06:57:06.224Z,71.89
2022-08-07T07:00:16.945Z,71.60
2022-08-07T07:03:13.703Z,71.71
2022-08-07T07:06:04.355Z,72.37
2022-08-07T07:08:55.170Z,72.65
2022-08-07T07:12:09.824Z,73.34
2022-08-07T07:14:58.943Z,72.79
2022-08-07T07:17:50.600Z,73.49
2022-08-07T07:20:56.991Z,75.07
2022-08-07T07:24:10.289Z,76.24
2022-08-07T07:26:52.571Z,76.91
2022-08-07T07:30:09.103Z,77.53
2022-08-07T07:32:50.188Z,78.54
2022-08-07T07:35:54.368Z,77.20
2022-08-07T07:38:50.969Z,77.07
2022-08-07T07:42:01.812Z,77.16
2022-08-07T07:44:49.952Z,77.21
2022-08-07T07:47:51.981Z,77.37
2022-08-07T07:50:38.866Z,78.04
2022-08-07T07:53:34.900Z,77.46
2022-08-07T07:56:18.217Z,78.52
2022-08-07T07:59:23.319Z,78.46
2022-08-07T08:02:35.443Z,78.00
2022-08-07T08:06:19.973Z,78.11
2022-08-07T08:09:05.650Z,78.02
2022-08-07T08:12:03.006Z,76.93
2022-08-07T08:14:54.187Z,77.77
2022-08-07T08:17:56.211Z,78.51
2022-08-07T08:20:49.912Z,77.84
2022-08-07T08:23:58.991Z,77.45
2022-08-07T08:27:00.227Z,78.33
2022-08-07T08:30:06.204Z,78.11
2022-08-07T08:33:01.821Z,76.48
2022-08-07T08:35:56.074Z,76.09
2022-08-07T08:38:46.648Z,76.04
2022-08-07T08:42:05.158Z,76.36
2022-08-07T08:45:58.424Z,77.09
2022-08-07T08:49:01.925Z,77.29
2022-08-07T08:52:14.009Z,76.31
2022-08-07T08:55:21.284Z,76.41
2022-08-07T08:58:41.173Z,76.91
2022-08-07T09:01:59.686Z,77.15
2022-08-07T09:05:02.225Z,76.38
2022-08-07T09:08:28.514Z,76.72
2022-08-07T09:11:54.523Z,76.33
2022-08-07T09:16:23.811Z,76.27
2022-08-07T09:18:36.745Z,75.83
2022-08-07T09:22:09.725Z,75.88
2022-08-07T09:25:20.187Z,76.07
2022-08-07T09:30:01.234Z,75.13
2022-08-07T09:32:20.924Z,73.69
2022-08-07T09:36:04.742Z,73.70
2022-08-07T09:39:55.328Z,72.70
2022-08-07T09:42:45.599Z,72.28
2022-08-07T09:47:51.424Z,71.87
2022-08-07T09:50:02.528Z,73.51
2022-08-07T09:52:52.507Z,73.75
2022-08-07T09:56:02.875Z,72.18
2022-08-07T09:59:00.171Z,73.50
2022-08-07T10:01:58.147Z,73.72
2022-08-07T10:05:00.636Z,74.07
2022-08-07T10:08:17.640Z,72.64
2022-08-07T10:12:00.032Z,73.06
2022-08-07T10:15:08.824Z,73.27
2022-08-07T10:18:37.370Z,72.59
2022-08-07T10:22:12.216Z,72.18
2022-08-07T10:25:01.539Z,72.53
2022-08-07T10:27:56.103Z,70.79
2022-08-07T10:31:11.022Z,71.59
2022-08-07T10:34:15.301Z,72.12
2022-08-07T10:37:12.655Z,71.86
2022-08-07T10:40:12.890Z,71.86
2022-08-07T10:43:34.123Z,71.95
2022-08-07T10:46:31.249Z,73.43
2022-08-07T10:49:50.945Z,73.14
2022-08-07T10:52:42.698Z,72.85
2022-08-07T10:55:58.514Z,73.42
2022-08-07T10:59:08.052Z,74.10
2022-08-07T11:02:38.090Z,74.10
2022-08-07T11:06:00.022Z,72.93
2022-08-07T11:09:03.548Z,71.28
2022-08-07T11:11:51.776Z,71.07
2022-08-07T11:14:46.407Z,71.91
2022-08-07T11:18:09.561Z,71.70
2022-08-07T11:21:00.980Z,71.46
2022-08-07T11:24:01.553Z,71.81
2022-08-07T11:27:33.753Z,71.66
2022-08-07T11:30:41.509Z,73.12
2022-08-07T11:33:54.115Z,72.43
2022-08-07T11:36:50.140Z,72.49
2022-08-07T11:40:03.727Z,72.49
2022-08-07T11:43:18.385Z,71.87
2022-08-07T11:46:58.306Z,72.03
2022-08-07T11:50:31.949Z,71.89
2022-08-07T11:53:11.311Z,70.80
2022-08-07T11:56:26.672Z,71.22
2022-08-07T12:00:11.341Z,72.15
2022-08-07T12:03:04.001Z,70.39
2022-08-07T12:06:37.845Z,69.83
2022-08-07T12:09:27.503Z,69.12
2022-08-07T12:12:24.806Z,70.05
2022-08-07T12:15:46.480Z,69.59
2022-08-07T12:18:45.131Z,68.29
2022-08-07T12:22:35.854Z,68.48
2022-08-07T12:26:03.200Z,68.72
2022-08-07T12:28:51.922Z,68.56
2022-08-07T12:32:15.164Z,67.43
2022-08-07T12:35:08.229Z,69.38
2022-08-07T12:38:09.623Z,69.49
2022-08-07T12:40:58.162Z,68.98
2022-08-07T12:44:04.739Z,69.44
2022-08-07T12:47:21.408Z,70.81
2022-08-07T12:50:39.863Z,71.41
2022-08-07T12:54:23.877Z,69.78
2022-08-07T12:57:07.170Z,70.65
2022-08-07T12:59:58.257Z,70.43
2022-08-07T13:03:08.501Z,71.28
2022-08-07T13:06:26.828Z,70.53
2022-08-07T13:10:22.099Z,71.54
2022-08-07T13:12:58.310Z,72.42
2022-08-07T13:16:08.972Z,71.78
2022-08-07T13:19:04.246Z,72.26
2022-08-07T13:22:04.107Z,72.83
2022-08-07T13:25:29.842Z,73.49
2022-08-07T13:28:24.013Z,73.31
2022-08-07T13:31:32.132Z,73.97
2022-08-07T13:34:44.714Z,73.09
2022-08-07T13:38:06.618Z,72.26
2022-08-07T13:41:05.553Z,73.03
2022-08-07T13:44:01.546Z,72.49
2022-08-07T13:47:02.273Z,73.18
2022-08-07T13:50:33.400Z,73.27
2022-08-07T13:52:59.501Z,74.44
2022-08-07T13:55:54.917Z,73.71
2022-08-07T13:59:06.249Z,73.66
2022-08-07T14:02:33.413Z,73.69
2022-08-07T14:05:28.947Z,73.68
2022-08-07T14:08:30.292Z,74.68
2022-08-07T14:11:17.541Z,74.27
2022-08-07T14:14:15.749Z,74.77
2022-08-07T14:17:32.218Z,74.61
2022-08-07T14:20:41.127Z,73.87
2022-08-07T14:24:00.282Z,73.99
2022-08-07T14:26:58.496Z,74.12
2022-08-07T14:30:09.838Z,75.00
2022-08-07T14:33:05.340Z,74.75
2022-08-07T14:36:08.811Z,75.61
2022-08-07T14:39:06.489Z,75.08
2022-08-07T14:42:20.663Z,75.79
2022-08-07T14:45:21.197Z,76.26
2022-08-07T14:48:19.719Z,75.33
2022-08-07T14:51:06.545Z,76.72
2022-08-07T14:54:30.907Z,76.79
2022-08-07T14:57:20.534Z,76.25
2022-08-07T15:00:06.949Z,75.98
2022-08-07T15:03:18.965Z,77.04
2022-08-07T15:06:09.517Z,76.35
2022-08-07T15:08:56.142Z,76.97
2022-08-07T15:15:34.308Z,76.80
2022-08-07T15:18:41.644Z,77.10
2022-08-07T15:28:35.217Z,77.37
2022-08-07T15:32:02.104Z,77.53
2022-08-07T15:34:26.906Z,78.04
2022-08-07T15:37:10.211Z,77.84
2022-08-07T15:43:52.940Z,77.70
2022-08-07T15:46:38.516Z,77.98
2022-08-07T15:50:05.090Z,78.86
2022-08-07T15:52:42.270Z,79.27
2022-08-07T15:55:58.573Z,78.19
2022-08-07T15:58:56.269Z,78.09
2022-08-07T16:02:02.066Z,77.92
2022-08-07T16:04:52.481Z,77.78
2022-08-07T16:08:30.889Z,77.96
2022-08-07T16:10:56.255Z,78.23
2022-08-07T16:14:06.807Z,78.19
2022-08-07T16:16:58.263Z,78.34
2022-08-07T16:20:33.623Z,78.62
2022-08-07T16:23:58.284Z,78.79
2022-08-07T16:27:21.818Z,77.92
2022-08-07T16:30:30.885Z,78.41
2022-08-07T16:34:02.217Z,78.57
2022-08-07T16:38:05.714Z,78.44
2022-08-07T16:41:02.336Z,78.15
2022-08-07T16:44:47.308Z,78.58
2022-08-07T16:47:49.680Z,78.86
2022-08-07T16:51:20.953Z,79.40
2022-08-07T16:54:11.444Z,78.87
2022-08-07T16:58:00.909Z,79.27
2022-08-07T17:00:31.154Z,79.34
2022-08-07T17:03:47.321Z,79.34
2022-08-07T17:07:03.219Z,79.56
2022-08-07T17:10:33.174Z,79.74
2022-08-07T17:13:41.864Z,79.48
2022-08-07T17:16:56.937Z,79.97
2022-08-07T17:20:14.481Z,79.76
2022-08-07T17:23:13.049Z,80.23
2022-08-07T17:26:35.866Z,79.83
2022-08-07T17:30:14.459Z,79.53
2022-08-07T17:34:09.983Z,79.23
2022-08-07T17:36:31.942Z,79.63
2022-08-07T17:39:58.907Z,79.44
2022-08-07T17:42:58.312Z,79.60
2022-08-07T17:45:55.497Z,80.23
2022-08-07T17:49:09.233Z,79.84
2022-08-07T17:52:00.943Z,79.97
2022-08-07T17:54:53.521Z,80.63
2022-08-07T17:57:58.639Z,80.04
2022-08-07T18:00:58.260Z,80.77
2022-08-07T18:04:07.731Z,80.46
2022-08-07T18:06:57.907Z,80.91
2022-08-07T18:10:32.424Z,80.77
2022-08-07T18:13:40.957Z,80.31
2022-08-07T18:16:59.004Z,80.19
2022-08-07T18:21:12.716Z,80.71
2022-08-07T18:23:43.364Z,80.50
2022-08-07T18:26:54.247Z,79.98
2022-08-07T18:30:05.801Z,80.42
2022-08-07T18:33:15.435Z,80.42
2022-08-07T18:36:33.348Z,80.68
2022-08-07T18:40:08.452Z,80.75
2022-08-07T18:43:01.233Z,80.35
2022-08-07T18:46:25.081Z,80.36
2022-08-07T18:50:30.355Z,80.14
2022-08-07T18:53:12.751Z,80.49
2022-08-07T18:56:21.341Z,80.99
2022-08-07T18:59:47.135Z,80.75
2022-08-07T19:02:52.493Z,80.77
2022-08-07T19:06:01.852Z,80.71
2022-08-07T19:09:09.336Z,80.54
2022-08-07T19:12:20.715Z,80.80
2022-08-07T19:16:05.451Z,80.91
2022-08-07T19:18:52.438Z,80.87
2022-08-07T19:22:04.209Z,81.19
2022-08-07T19:25:06.727Z,81.83
2022-08-07T19:28:29.325Z,81.41
2022-08-07T19:31:59.820Z,81.30
2022-08-07T19:34:39.489Z,81.50
2022-08-07T19:37:24.274Z,81.14
2022-08-07T19:40:34.648Z,81.13
2022-08-07T19:43:49.136Z,81.43
2022-08-07T19:46:55.368Z,81.27
2022-08-07T19:49:58.402Z,81.27
2022-08-07T19:52:46.924Z,80.88
2022-08-07T19:55:57.574Z,81.25
2022-08-07T19:58:46.498Z,81.02
2022-08-07T20:01:52.610Z,80.66
2022-08-07T20:04:51.875Z,80.54
2022-08-07T20:07:47.498Z,80.35
2022-08-07T20:10:54.966Z,80.71
2022-08-07T20:13:47.439Z,80.94
2022-08-07T20:16:37.578Z,80.92
2022-08-07T20:19:47.993Z,80.39
2022-08-07T20:22:42.333Z,80.46
2022-08-07T20:25:32.505Z,81.06
2022-08-07T20:28:38.230Z,80.54
2022-08-07T20:31:29.500Z,80.57
2022-08-07T20:34:14.841Z,80.33
2022-08-07T20:37:09.479Z,81.03
2022-08-07T20:40:03.072Z,80.95
2022-08-07T20:42:58.802Z,80.49
2022-08-07T20:46:26.921Z,80.21
2022-08-07T20:49:00.742Z,80.46
2022-08-07T20:51:53.835Z,80.52
2022-08-07T20:54:53.082Z,80.68
2022-08-07T20:58:00.016Z,80.94
2022-08-07T21:00:55.296Z,80.65
2022-08-07T21:03:38.699Z,80.28
2022-08-07T21:06:31.603Z,81.04
2022-08-07T21:09:27.875Z,81.01
2022-08-07T21:12:28.690Z,80.57
2022-08-07T21:15:47.834Z,80.65
2022-08-07T21:18:41.302Z,80.89
2022-08-07T21:21:33.251Z,81.38
2022-08-07T21:24:54.505Z,80.95
2022-08-07T21:28:05.485Z,80.61
2022-08-07T21:31:10.467Z,81.27
2022-08-07T21:34:32.294Z,81.03
2022-08-07T21:37:57.191Z,80.92
2022-08-07T21:40:40.496Z,81.46
2022-08-07T21:43:55.312Z,81.38
2022-08-07T21:47:03.474Z,80.93
2022-08-07T21:50:02.713Z,81.17
2022-08-07T21:53:27.500Z,80.96
2022-08-07T21:56:36.178Z,80.80
2022-08-07T22:00:05.443Z,81.54
2022-08-07T22:02:47.664Z,80.62
2022-08-07T22:05:46.099Z,80.99
2022-08-07T22:08:39.425Z,81.34
2022-08-07T22:11:30.767Z,80.68
2022-08-07T22:14:59.118Z,80.98
2022-08-07T22:17:56.448Z,80.50
2022-08-07T22:21:01.750Z,80.26
2022-08-07T22:24:05.461Z,80.66
2022-08-07T22:27:06.073Z,80.75
2022-08-07T22:30:22.450Z,81.06
2022-08-07T22:33:18.837Z,80.79
2022-08-07T22:36:33.468Z,80.37
2022-08-07T22:39:52.640Z,80.46
2022-08-07T22:42:45.269Z,80.37
2022-08-07T22:46:21.813Z,80.45
2022-08-07T22:49:09.662Z,80.89
2022-08-07T22:52:36.971Z,80.41
2022-08-07T22:55:44.570Z,80.60
2022-08-07T22:59:02.244Z,80.11
2022-08-07T23:01:58.925Z,80.10
2022-08-07T23:06:09.777Z,80.40
2022-08-07T23:10:03.560Z,80.32
2022-08-07T23:12:36.287Z,81.08
2022-08-07T23:16:07.386Z,81.53
2022-08-07T23:19:48.402Z,80.75
2022-08-07T23:22:40.463Z,80.69
2022-08-07T23:26:01.817Z,80.49
2022-08-07T23:29:16.841Z,81.05
2022-08-07T23:34:20.773Z,80.56
2022-08-07T23:36:22.933Z,80.33
2022-08-07T23:39:40.830Z,80.66
2022-08-07T23:43:16.446Z,80.68
2022-08-07T23:46:10.419Z,80.51
2022-08-07T23:49:01.439Z,80.61
2022-08-07T23:53:01.583Z,80.70
2022-08-07T23:55:05.475Z,80.59
2022-08-07T23:58:00.559Z,81.14
